Estación Meteorológica Peña el Pijo (Robertgarden) [ 07/23/19 01:07:56 CEST ]

Fecha Hora Presion(HPa) Temp (°C) Humedad % Rocio (°C) Viento ( m/s) Direccion Lluvia 1Hora(mm) Lluvia 24H(mm) LLuvia Total(mm)
2019-May-31 01:01:38 1016.400 22.3 72 17.0         318.05
2019-May-31 02:01:38 1016.300 20.4 76 16.0         318.05
2019-May-31 03:02:18 1015.900 20.4 79 16.8         318.05
2019-May-31 04:02:05 1015.400 27.4 82 24.1         318.05
2019-May-31 05:02:18 1015.100 25.9 84 23.0         318.05
2019-May-31 06:02:18 1014.900 27.9 86 25.3         318.05
2019-May-31 07:01:47 1015.100 25.9 87 23.6         318.05
2019-May-31 08:01:38 1015.400 21.1 88 19.0         318.05
2019-May-31 09:01:50 1015.200 16.9 68 10.9         318.05
2019-May-31 10:01:49 1015.200 21.0 39 6.5         318.05
2019-May-31 11:01:47 1015.100 23.2 34 5.9         318.05
2019-May-31 12:01:41 1015.100 25.4 31 7.0 2.6 NNE     318.05
2019-May-31 13:01:36 1015.000 25.4 29 6.0         318.05
2019-May-31 14:01:53 1014.800 25.9 28 5.9         318.05
2019-May-31 15:01:26 1014.400 28.3 25 6.7 1.8 NNE     318.05
2019-May-31 16:01:43 1014.000 28.9 25 6.7         318.05
2019-May-31 17:01:33 1013.800 27.2 27 6.4 0.9 N     318.05
2019-May-31 18:01:49 1013.600 27.3 27 6.5 2.8 N     318.05
2019-May-31 19:01:52 1013.800 25.3 31 7.0         318.05
2019-May-31 20:01:52 1013.900 23.5 34 6.6         318.05
2019-May-31 21:01:42 1014.300 20.5 41 6.8         318.05
2019-May-31 22:01:51 1014.400 19.2 48 7.9         318.05
2019-May-31 23:01:53 1014.800 17.9 56 8.9         318.05

Temperatura Máxima:28°    Temperatura Mínima:16°
Presión Máxima:1016.400 Hpa    Presión Mínima:1013.600 Hpa


Volver